Flugplatz Hamburg

Bericht für EDDH

vom 06.06. um 06:50 UTC

Wind 11 kt aus 230°

Sichtweite 10 km oder mehr

gering bewölkt in 1600 ft

aufgebrochene Bewölkung in 1900 ft

Temperatur 10.0°C

Taupunkt 7.0°C

Luftfeuchtigkeit 82%

Luftdruck 996 hPa

EDDH 060650Z 23011KT 210V270 9999 FEW016 BKN019 10/07 Q0996 TEMPO 23015G25KT

Prognose für EDDH

vom 06.06. um 05:00 UTC

Zwischen 06:00 UTC und 12:00 UTC

Wind 12 kt aus 220°

Sichtweite 10 km oder mehr

aufgelockert bewölkt in 3000 ft


Zwischen 06:00 und 08:00 UTC übergehend zu

Wind 15 kt aus 220° in Böen 25 kt

Sichtweite 10 km oder mehr

aufgelockert bewölkt in 3000 ft


Zwischen 09:00 UTC und 15:00 UTC zeitweise

Wind 20 kt aus 230° in Böen 30 kt


Zwischen 10:00 UTC und 17:00 UTC zeitweise

Regenschauer

aufgelockert bewölkt in 3000 ft


Zwischen 16:00 und 18:00 UTC übergehend zu

Wind 7 kt aus 190°

Sichtweite 10 km oder mehr

aufgelockert bewölkt in 3000 ft


Am 07.06. zwischen 06:00 und 08:00 UTC übergehend zu

Wind 15 kt aus 220° in Böen 25 kt

Sichtweite 10 km oder mehr

aufgelockert bewölkt in 3000 ft


Am 07.06. zwischen 10:00 UTC und 12:00 UTC zeitweise mit einer Wahrscheinlichkeit von 30%

Regenschauer

aufgelockert bewölkt in 3000 ft

TAF EDDH 060500Z 0606/0712 22012KT 9999 SCT030 BECMG 0606/0608 22015G25KT TEMPO 0609/0615 23020G30KT TEMPO 0610/0617 SHRA SCT030CB BECMG 0616/0618 19007KT BECMG 0706/0708 22015G25KT PROB30 TEMPO 0710/0712 SHRA SCT030CB
Impressum